createdAt,value
2018-08-17T05:18:36.895Z,96.20
2018-08-17T05:21:06.622Z,96.26
2018-08-17T05:23:36.100Z,95.69
2018-08-17T05:26:05.689Z,95.27
2018-08-17T05:28:35.224Z,94.57
2018-08-17T05:31:05.044Z,94.30
2018-08-17T05:33:34.580Z,93.29
2018-08-17T05:36:04.236Z,91.40
2018-08-17T05:38:33.675Z,91.57
2018-08-17T05:41:03.389Z,88.77
2018-08-17T05:43:32.901Z,88.48
2018-08-17T05:46:02.606Z,85.32
2018-08-17T05:48:33.090Z,84.00
2018-08-17T05:51:02.746Z,85.99
2018-08-17T05:53:32.255Z,85.34
2018-08-17T05:56:01.998Z,83.00
2018-08-17T05:58:31.450Z,82.61
2018-08-17T06:01:01.012Z,83.92
2018-08-17T06:03:30.476Z,77.92
2018-08-17T06:06:00.205Z,80.89
2018-08-17T06:08:30.145Z,78.53
2018-08-17T06:10:59.670Z,80.19
2018-08-17T06:13:29.045Z,78.64
2018-08-17T06:15:58.649Z,74.70
2018-08-17T06:18:28.304Z,72.34
2018-08-17T06:20:58.375Z,70.99
2018-08-17T06:23:27.853Z,68.15
2018-08-17T06:25:57.385Z,66.98
2018-08-17T06:28:26.952Z,70.52
2018-08-17T06:30:56.423Z,69.21
2018-08-17T06:33:25.872Z,68.29
2018-08-17T06:35:55.389Z,69.32
2018-08-17T06:38:24.719Z,70.30
2018-08-17T06:40:54.143Z,67.38
2018-08-17T06:43:23.587Z,67.75
2018-08-17T06:45:53.084Z,71.47
2018-08-17T06:48:22.564Z,68.22
2018-08-17T06:50:52.125Z,68.14
2018-08-17T06:53:27.503Z,66.32
2018-08-17T06:55:57.185Z,66.17
2018-08-17T06:58:26.650Z,66.50
2018-08-17T07:00:56.063Z,63.13
2018-08-17T07:03:25.401Z,62.40
2018-08-17T07:05:54.942Z,61.11
2018-08-17T07:08:24.181Z,59.69
2018-08-17T07:10:53.690Z,59.10
2018-08-17T07:13:23.289Z,57.02
2018-08-17T07:15:52.729Z,58.28
2018-08-17T07:18:22.201Z,60.53
2018-08-17T07:20:51.682Z,56.80
2018-08-17T07:23:21.020Z,57.67
2018-08-17T07:25:50.525Z,57.85
2018-08-17T07:28:19.982Z,60.69
2018-08-17T07:30:50.081Z,59.68
2018-08-17T07:33:19.600Z,58.30
2018-08-17T07:35:49.331Z,55.21
2018-08-17T07:38:18.682Z,55.57
2018-08-17T07:40:49.220Z,56.84
2018-08-17T07:43:35.980Z,57.05
2018-08-17T07:46:12.143Z,57.59
2018-08-17T07:48:43.688Z,57.52
2018-08-17T07:51:13.340Z,55.15
2018-08-17T07:53:42.828Z,53.62
2018-08-17T07:56:12.346Z,56.79
2018-08-17T07:58:42.168Z,54.99
2018-08-17T08:01:12.326Z,56.01
2018-08-17T08:03:42.144Z,56.49
2018-08-17T08:06:11.621Z,52.63
2018-08-17T08:08:41.000Z,53.17
2018-08-17T08:11:10.637Z,56.52
2018-08-17T08:13:40.089Z,54.89
2018-08-17T08:16:11.018Z,56.60
2018-08-17T08:18:40.881Z,52.54
2018-08-17T08:21:10.483Z,52.71
2018-08-17T08:23:40.887Z,56.27
2018-08-17T08:26:10.689Z,51.21
2018-08-17T08:28:40.760Z,49.97
2018-08-17T08:31:11.180Z,52.18
2018-08-17T08:33:40.567Z,50.66
2018-08-17T08:36:10.119Z,47.91
2018-08-17T08:38:39.820Z,47.49
2018-08-17T08:41:09.287Z,52.69
2018-08-17T08:43:39.215Z,48.24
2018-08-17T08:46:09.063Z,46.56
2018-08-17T08:48:39.257Z,48.67
2018-08-17T08:51:09.120Z,45.86
2018-08-17T08:53:38.656Z,50.38
2018-08-17T08:56:08.945Z,46.58
2018-08-17T08:58:38.403Z,44.51
2018-08-17T09:01:10.137Z,46.89
2018-08-17T09:03:39.665Z,45.43
2018-08-17T09:06:10.626Z,44.29
2018-08-17T09:08:40.771Z,47.35
2018-08-17T09:11:16.881Z,46.30
2018-08-17T09:13:48.105Z,44.87
2018-08-17T09:16:17.703Z,44.47
2018-08-17T09:18:47.354Z,48.05
2018-08-17T09:21:16.975Z,46.58
2018-08-17T09:23:46.801Z,45.03
2018-08-17T09:26:16.412Z,45.39
2018-08-17T09:28:45.959Z,43.64
2018-08-17T09:31:15.620Z,47.85
2018-08-17T09:33:45.185Z,46.13
2018-08-17T09:36:14.921Z,42.96
2018-08-17T09:38:44.538Z,42.21
2018-08-17T09:41:14.366Z,44.03
2018-08-17T09:43:43.977Z,47.85
2018-08-17T09:46:14.101Z,42.04
2018-08-17T09:48:43.815Z,45.57
2018-08-17T09:51:13.467Z,41.93
2018-08-17T09:53:43.747Z,42.59
2018-08-17T09:56:13.322Z,43.43
2018-08-17T09:58:42.762Z,44.80
2018-08-17T10:01:17.281Z,40.00
2018-08-17T10:03:51.889Z,38.24
2018-08-17T10:06:27.267Z,37.21
2018-08-17T10:09:01.762Z,40.81
2018-08-17T10:11:31.541Z,39.95
2018-08-17T10:14:01.041Z,41.63
2018-08-17T10:16:30.802Z,38.48
2018-08-17T10:19:00.401Z,42.65
2018-08-17T10:21:31.846Z,40.56
2018-08-17T10:24:02.629Z,38.98
2018-08-17T10:26:32.403Z,39.55
2018-08-17T10:29:02.268Z,38.01
2018-08-17T10:31:32.228Z,39.96
2018-08-17T10:34:02.051Z,40.60
2018-08-17T10:36:31.830Z,38.18
2018-08-17T10:39:01.356Z,37.53
2018-08-17T10:41:31.429Z,35.61
2018-08-17T10:44:01.216Z,39.49
2018-08-17T10:46:31.330Z,34.06
2018-08-17T10:49:00.939Z,38.61
2018-08-17T10:51:30.570Z,36.23
2018-08-17T10:54:00.103Z,39.58
2018-08-17T10:56:29.642Z,39.90
2018-08-17T10:58:59.419Z,37.22
2018-08-17T11:01:29.120Z,36.74
2018-08-17T11:03:58.959Z,37.37
2018-08-17T11:06:29.063Z,38.96
2018-08-17T11:08:59.368Z,36.51
2018-08-17T11:11:29.069Z,38.58
2018-08-17T11:13:59.121Z,37.02
2018-08-17T11:16:28.705Z,39.00
2018-08-17T11:18:58.362Z,36.62
2018-08-17T11:21:28.162Z,35.93
2018-08-17T11:23:58.144Z,33.90
2018-08-17T11:26:27.730Z,33.95
2018-08-17T11:28:57.451Z,38.39
2018-08-17T11:31:27.109Z,35.66
2018-08-17T11:33:56.890Z,41.00
2018-08-17T11:36:57.842Z,40.61
2018-08-17T11:39:27.744Z,41.26
2018-08-17T11:41:58.133Z,41.33
2018-08-17T11:44:33.050Z,41.50
2018-08-17T11:47:03.186Z,36.46
2018-08-17T11:49:32.901Z,38.86
2018-08-17T11:52:02.465Z,39.50
2018-08-17T11:54:32.154Z,46.33
2018-08-17T11:57:01.818Z,41.14
2018-08-17T11:59:31.262Z,39.30
2018-08-17T12:02:01.006Z,38.33
2018-08-17T12:04:30.733Z,40.70
2018-08-17T12:07:00.883Z,41.85
2018-08-17T12:09:35.030Z,43.48
2018-08-17T12:12:05.733Z,42.12
2018-08-17T12:14:44.157Z,40.55
2018-08-17T12:17:15.594Z,46.78
2018-08-17T12:19:45.982Z,39.91
2018-08-17T12:22:17.197Z,40.60
2018-08-17T12:24:47.896Z,41.29
2018-08-17T12:27:18.199Z,43.04
2018-08-17T12:29:48.739Z,40.55
2018-08-17T12:32:20.937Z,41.26
2018-08-17T12:34:50.858Z,45.21
2018-08-17T12:37:35.307Z,41.48
2018-08-17T12:40:04.906Z,42.01
2018-08-17T12:42:38.573Z,42.63
2018-08-17T12:45:13.071Z,41.51
2018-08-17T12:47:42.656Z,41.11
2018-08-17T12:50:12.049Z,42.65
2018-08-17T12:52:41.510Z,44.19
2018-08-17T12:55:10.981Z,40.68
2018-08-17T12:57:41.309Z,45.71
2018-08-17T13:00:11.970Z,41.58
2018-08-17T13:02:41.680Z,41.18
2018-08-17T13:05:11.110Z,41.42
2018-08-17T13:07:40.712Z,42.35
2018-08-17T13:10:10.633Z,44.35
2018-08-17T13:12:40.229Z,41.50
2018-08-17T13:15:09.752Z,38.25
2018-08-17T13:17:44.430Z,39.82
2018-08-17T13:20:13.931Z,43.79
2018-08-17T13:22:43.553Z,38.81
2018-08-17T13:25:12.971Z,39.44
2018-08-17T13:27:42.498Z,39.38
2018-08-17T13:30:14.911Z,42.36
2018-08-17T13:32:45.272Z,39.04
2018-08-17T13:35:15.271Z,41.33
2018-08-17T13:37:44.812Z,38.15
2018-08-17T13:40:14.231Z,40.42
2018-08-17T13:42:43.752Z,39.92
2018-08-17T13:45:13.352Z,40.98
2018-08-17T13:47:43.092Z,44.52
2018-08-17T13:50:12.550Z,39.55
2018-08-17T13:52:42.093Z,46.39
2018-08-17T13:55:11.611Z,41.33
2018-08-17T13:57:41.191Z,42.16
2018-08-17T14:00:12.172Z,44.07
2018-08-17T14:02:42.077Z,42.87
2018-08-17T14:05:12.392Z,43.04
2018-08-17T14:07:42.152Z,43.15
2018-08-17T14:10:12.387Z,43.18
2018-08-17T14:12:41.932Z,41.72
2018-08-17T14:15:11.672Z,42.58
2018-08-17T14:17:41.256Z,42.58
2018-08-17T14:20:16.296Z,42.11
2018-08-17T14:22:45.832Z,41.73
2018-08-17T14:25:15.629Z,42.60
2018-08-17T14:27:45.192Z,44.38
2018-08-17T14:30:18.233Z,43.47
2018-08-17T14:32:47.754Z,42.76
2018-08-17T14:35:17.239Z,40.62
2018-08-17T14:37:46.932Z,41.26
2018-08-17T14:40:16.447Z,41.29
2018-08-17T14:42:46.154Z,43.90
2018-08-17T14:45:15.513Z,42.19
2018-08-17T14:47:45.033Z,39.25
2018-08-17T14:50:15.283Z,42.15
2018-08-17T14:52:44.899Z,41.67
2018-08-17T14:55:14.942Z,42.40
2018-08-17T14:57:44.494Z,41.54
2018-08-17T15:00:15.602Z,41.63
2018-08-17T15:02:45.214Z,41.52
2018-08-17T15:05:16.133Z,40.62
2018-08-17T15:07:45.779Z,39.37
2018-08-17T15:10:17.286Z,39.50
2018-08-17T15:12:49.401Z,39.58
2018-08-17T15:15:20.367Z,41.52
2018-08-17T15:17:52.443Z,38.14
2018-08-17T15:20:23.273Z,39.35
2018-08-17T15:22:53.833Z,37.28
2018-08-17T15:25:26.954Z,38.75
2018-08-17T15:27:58.316Z,39.35
2018-08-17T15:30:29.454Z,41.80
2018-08-17T15:32:59.920Z,38.60
2018-08-17T15:35:29.980Z,36.67
2018-08-17T15:37:59.801Z,39.97
2018-08-17T15:40:30.440Z,37.87
2018-08-17T15:43:05.353Z,41.51
2018-08-17T15:45:35.433Z,40.65
2018-08-17T15:48:06.054Z,45.34
2018-08-17T15:50:36.614Z,42.51
2018-08-17T15:53:07.240Z,41.02
2018-08-17T15:55:36.771Z,42.93
2018-08-17T15:58:07.321Z,40.64
2018-08-17T16:00:37.402Z,42.35
2018-08-17T16:03:07.513Z,41.76
2018-08-17T16:05:37.676Z,42.14
2018-08-17T16:08:07.854Z,49.57
2018-08-17T16:10:37.345Z,41.06
2018-08-17T16:13:07.121Z,42.19
2018-08-17T16:15:37.027Z,42.59
2018-08-17T16:18:07.246Z,43.49
2018-08-17T16:20:48.922Z,43.67
2018-08-17T16:23:20.261Z,44.30
2018-08-17T16:25:52.287Z,45.64
2018-08-17T16:28:23.205Z,47.56
2018-08-17T16:30:54.893Z,45.80
2018-08-17T16:33:25.766Z,44.96
2018-08-17T16:35:57.665Z,42.92
2018-08-17T16:38:27.969Z,51.90
2018-08-17T16:40:58.573Z,45.31
2018-08-17T16:43:51.025Z,46.75
2018-08-17T16:46:21.286Z,51.83
2018-08-17T16:48:58.936Z,53.57
2018-08-17T16:51:41.515Z,53.04
2018-08-17T16:54:11.529Z,54.58
2018-08-17T16:56:42.267Z,56.39
2018-08-17T16:59:12.635Z,55.97
2018-08-17T17:01:44.548Z,56.53
2018-08-17T17:04:14.807Z,53.94
2018-08-17T17:06:45.587Z,55.99
2018-08-17T17:09:15.288Z,57.69
2018-08-17T17:11:45.209Z,53.98
2018-08-17T17:14:16.860Z,56.17
2018-08-17T17:16:50.298Z,57.69
2018-08-17T17:19:22.649Z,59.87
2018-08-17T17:21:53.325Z,59.86
2018-08-17T17:24:26.289Z,60.12
2018-08-17T17:26:55.926Z,63.09
2018-08-17T17:29:25.791Z,63.11
2018-08-17T17:31:59.454Z,67.18
2018-08-17T17:34:29.188Z,67.68
2018-08-17T17:36:59.783Z,71.37
2018-08-17T17:39:32.011Z,71.89
2018-08-17T17:42:03.266Z,71.79
2018-08-17T17:44:38.499Z,71.05
2018-08-17T17:47:11.812Z,72.49
2018-08-17T17:49:42.807Z,74.41
2018-08-17T17:52:14.805Z,75.93
2018-08-17T17:54:50.066Z,75.49
2018-08-17T17:57:22.006Z,77.46
2018-08-17T17:59:59.454Z,78.14
2018-08-17T18:02:32.764Z,77.98
2018-08-17T18:05:05.026Z,79.84
2018-08-17T18:07:40.068Z,80.12
2018-08-17T18:10:12.314Z,78.95
2018-08-17T18:12:44.506Z,79.68
2018-08-17T18:15:15.822Z,79.36
2018-08-17T18:17:49.635Z,79.81
2018-08-17T18:20:20.332Z,81.96
2018-08-17T18:22:54.008Z,82.87
2018-08-17T18:25:26.623Z,83.09
2018-08-17T18:27:59.045Z,83.38
2018-08-17T18:30:31.167Z,82.93
2018-08-17T18:33:01.283Z,82.91
2018-08-17T18:35:31.625Z,84.28
2018-08-17T18:38:02.347Z,82.65
2018-08-17T18:40:38.466Z,82.83
2018-08-17T18:43:13.856Z,83.91
2018-08-17T18:45:49.845Z,84.38
2018-08-17T18:48:31.450Z,83.39
2018-08-17T18:51:07.286Z,84.24
2018-08-17T18:53:40.847Z,83.96
2018-08-17T18:56:11.245Z,85.46
2018-08-17T18:58:42.027Z,85.05
2018-08-17T19:01:12.078Z,84.03
2018-08-17T19:03:41.844Z,84.39
2018-08-17T19:06:11.906Z,85.70
2018-08-17T19:08:41.484Z,84.74
2018-08-17T19:11:11.124Z,86.36
2018-08-17T19:13:40.624Z,86.72
2018-08-17T19:16:10.342Z,86.57
2018-08-17T19:18:40.396Z,86.53
2018-08-17T19:21:13.688Z,86.20
2018-08-17T19:23:43.305Z,85.00
2018-08-17T19:26:13.484Z,85.46
2018-08-17T19:28:42.964Z,84.89
2018-08-17T19:31:12.508Z,85.31
2018-08-17T19:33:42.173Z,86.60
2018-08-17T19:36:12.428Z,88.09
2018-08-17T19:38:43.273Z,87.90
2018-08-17T19:41:12.806Z,87.35
2018-08-17T19:43:42.483Z,88.05
2018-08-17T19:46:12.156Z,87.64
2018-08-17T19:48:41.513Z,87.57
2018-08-17T19:51:16.204Z,87.53
2018-08-17T19:53:46.137Z,87.05
2018-08-17T19:56:16.223Z,86.96
2018-08-17T19:58:45.995Z,87.04
2018-08-17T20:01:15.357Z,87.34
2018-08-17T20:03:44.935Z,87.76
2018-08-17T20:06:14.497Z,88.05
2018-08-17T20:08:44.460Z,88.66
2018-08-17T20:11:14.066Z,88.49
2018-08-17T20:13:43.830Z,88.22
2018-08-17T20:16:22.042Z,87.91
2018-08-17T20:18:51.808Z,88.27
2018-08-17T20:21:25.172Z,88.61
2018-08-17T20:23:55.303Z,88.89
2018-08-17T20:26:26.026Z,89.16
2018-08-17T20:28:55.733Z,89.80
2018-08-17T20:31:25.298Z,89.68
2018-08-17T20:33:54.964Z,88.89
2018-08-17T20:36:24.751Z,89.40
2018-08-17T20:38:54.790Z,90.08
2018-08-17T20:41:24.364Z,90.23
2018-08-17T20:43:53.992Z,90.38
2018-08-17T20:46:23.503Z,89.69
2018-08-17T20:48:53.162Z,90.30
2018-08-17T20:51:25.711Z,90.72
2018-08-17T20:53:59.772Z,90.24
2018-08-17T20:56:29.818Z,89.68
2018-08-17T20:58:59.503Z,91.51
2018-08-17T21:01:29.367Z,91.66
2018-08-17T21:03:58.869Z,90.30
2018-08-17T21:06:28.308Z,91.43
2018-08-17T21:08:58.026Z,91.09
2018-08-17T21:11:27.523Z,91.99
2018-08-17T21:13:57.046Z,91.84
2018-08-17T21:16:27.790Z,92.14
2018-08-17T21:18:57.363Z,91.27
2018-08-17T21:21:27.045Z,90.95
2018-08-17T21:23:56.854Z,90.88
2018-08-17T21:26:26.596Z,91.28
2018-08-17T21:28:56.734Z,91.08
2018-08-17T21:31:26.261Z,91.66
2018-08-17T21:33:55.904Z,91.84
2018-08-17T21:36:25.682Z,91.50
2018-08-17T21:40:03.141Z,90.82
2018-08-17T21:42:32.701Z,91.38
2018-08-17T21:45:02.352Z,91.29
2018-08-17T21:47:31.883Z,91.48
2018-08-17T21:50:06.475Z,91.68
2018-08-17T21:52:36.038Z,91.55
2018-08-17T21:55:05.690Z,91.33
2018-08-17T21:57:35.132Z,90.65
2018-08-17T22:00:06.425Z,91.16
2018-08-17T22:02:36.014Z,91.96
2018-08-17T22:05:06.004Z,91.87
2018-08-17T22:07:35.445Z,91.51
2018-08-17T22:10:05.355Z,91.99
2018-08-17T22:12:34.904Z,91.75
2018-08-17T22:15:04.713Z,92.89
2018-08-17T22:17:39.108Z,93.55
2018-08-17T22:20:10.951Z,92.69
2018-08-17T22:22:40.552Z,92.91
2018-08-17T22:25:16.959Z,92.59
2018-08-17T22:27:46.691Z,92.03
2018-08-17T22:30:22.096Z,92.30
2018-08-17T22:32:53.602Z,92.75
2018-08-17T22:35:23.432Z,93.20
2018-08-17T22:37:52.731Z,93.06
2018-08-17T22:40:22.321Z,91.85
2018-08-17T22:42:52.832Z,92.37
2018-08-17T22:45:22.644Z,91.66
2018-08-17T22:47:52.089Z,91.23
2018-08-17T22:50:21.593Z,91.83
2018-08-17T22:52:51.115Z,91.52
2018-08-17T22:55:20.738Z,91.99
2018-08-17T22:57:50.211Z,92.29
2018-08-17T23:00:24.404Z,92.64
2018-08-17T23:02:55.747Z,93.15
2018-08-17T23:05:31.028Z,93.23
2018-08-17T23:08:00.421Z,92.37
2018-08-17T23:10:30.549Z,92.45
2018-08-17T23:13:00.070Z,92.86
2018-08-17T23:15:29.669Z,93.45
2018-08-17T23:18:00.713Z,93.27
2018-08-17T23:20:35.283Z,93.33
2018-08-17T23:23:08.184Z,93.66
2018-08-17T23:25:37.682Z,94.00
2018-08-17T23:28:07.086Z,93.54
2018-08-17T23:30:36.652Z,93.43
2018-08-17T23:33:06.814Z,93.92
2018-08-17T23:35:36.495Z,93.71
2018-08-17T23:38:06.086Z,93.76
2018-08-17T23:40:35.598Z,93.09
2018-08-17T23:43:05.082Z,92.70
2018-08-17T23:45:34.641Z,92.72
2018-08-17T23:48:04.016Z,93.45
2018-08-17T23:50:33.673Z,93.83
2018-08-17T23:53:03.284Z,93.63
2018-08-17T23:55:32.830Z,94.35
2018-08-17T23:58:02.313Z,94.20
